Time;durP1;ratioP1;P1;durP2;ratioP2;P2;SDS_P1;SDS_P2;PMS_P1;PMS_P2;Temp;Humidity;BMP_temperature;BMP_pressure;BME280_temperature;BME280_humidity;BME280_pressure;Samples;Min_cycle;Max_cycle;Signal;HPM_P1;HPM_P2
2022/05/27 00:02:11;;;;;;;3.28;2.80;;;15.80;23.10;;;;;;4973062;28;35481;-74
2022/05/27 00:04:37;;;;;;;3.30;2.97;;;15.80;23.00;;;;;;4991002;28;34185;-74
2022/05/27 00:07:04;;;;;;;4.30;3.05;;;15.80;23.00;;;;;;5009391;28;34270;-74
2022/05/27 00:09:30;;;;;;;4.32;2.88;;;15.90;23.10;;;;;;5009637;28;34485;-74
2022/05/27 00:11:56;;;;;;;4.65;3.08;;;15.90;23.00;;;;;;5014484;28;34153;-74
2022/05/27 00:14:22;;;;;;;5.55;2.92;;;16.00;23.00;;;;;;4986720;28;34137;-74
2022/05/27 00:16:48;;;;;;;2.22;2.03;;;16.00;22.90;;;;;;4997905;28;34293;-78
2022/05/27 00:19:16;;;;;;;3.78;2.70;;;16.00;22.80;;;;;;5008509;28;34189;-77
2022/05/27 00:21:42;;;;;;;3.28;2.15;;;16.00;22.80;;;;;;5015214;28;34108;-80
2022/05/27 00:24:08;;;;;;;2.03;1.75;;;16.10;22.70;;;;;;4974794;28;34128;-77
2022/05/27 00:26:34;;;;;;;3.05;1.85;;;16.10;22.50;;;;;;4976999;28;34083;-80
2022/05/27 00:29:00;;;;;;;2.00;1.48;;;16.20;22.50;;;;;;4993732;28;34591;-78
2022/05/27 00:31:26;;;;;;;3.90;1.80;;;16.20;22.20;;;;;;5011847;28;34638;-75
2022/05/27 00:33:52;;;;;;;2.65;1.83;;;16.30;22.20;;;;;;5007034;28;34359;-78
2022/05/27 00:36:18;;;;;;;2.75;1.70;;;16.30;22.10;;;;;;4991390;28;34491;-76
2022/05/27 00:38:44;;;;;;;3.35;2.00;;;16.40;21.90;;;;;;4999367;28;34776;-76
2022/05/27 00:41:11;;;;;;;2.90;2.30;;;16.40;21.80;;;;;;5009237;28;34823;-76
2022/05/27 00:43:39;;;;;;;3.92;2.30;;;16.40;21.80;;;;;;5011208;28;34036;-77
2022/05/27 00:46:18;;;;;;;2.85;2.38;;;16.40;21.90;;;;;;5008898;28;34409;-75
2022/05/27 00:48:48;;;;;;;3.67;2.53;;;16.50;21.90;;;;;;5009232;28;34272;-78
2022/05/27 00:51:19;;;;;;;5.03;3.28;;;16.50;22.00;;;;;;4989392;28;36442;-76
2022/05/27 00:53:55;;;;;;;2.83;2.47;;;16.50;22.20;;;;;;5002185;28;34161;-75
2022/05/27 00:56:24;;;;;;;4.18;2.63;;;16.50;22.90;;;;;;4998120;28;34376;-75
2022/05/27 00:58:55;;;;;;;5.43;2.70;;;16.50;22.00;;;;;;4981758;28;34123;-77
2022/05/27 01:01:21;;;;;;;2.75;2.53;;;16.50;22.50;;;;;;4981579;28;36635;-79
2022/05/27 01:03:48;;;;;;;3.08;2.42;;;16.50;21.90;;;;;;4989168;28;34539;-77
2022/05/27 01:06:14;;;;;;;2.63;1.80;;;16.50;22.00;;;;;;4972567;28;34105;-75
2022/05/27 01:08:41;;;;;;;2.72;1.85;;;16.50;21.90;;;;;;4977963;28;34414;-78
2022/05/27 01:11:21;;;;;;;2.22;1.80;;;16.50;21.80;;;;;;4990476;28;36711;-77
2022/05/27 01:14:07;;;;;;;3.72;1.10;;;16.50;22.00;;;;;;4974566;28;34119;-76
2022/05/27 01:16:56;;;;;;;0.90;0.90;;;16.50;21.60;;;;;;4991575;28;34219;-79
2022/05/27 01:22:49;;;;;;;1.35;1.25;;;16.50;21.40;;;;;;4989791;28;34732;-76
2022/05/27 01:25:45;;;;;;;1.10;1.00;;;16.60;21.30;;;;;;4989151;28;34337;-75
2022/05/27 01:28:27;;;;;;;1.42;1.20;;;16.60;21.40;;;;;;4967478;28;34249;-75
2022/05/27 01:31:09;;;;;;;3.92;1.08;;;16.60;21.00;;;;;;4967684;28;34308;-75
2022/05/27 01:33:59;;;;;;;1.05;0.82;;;16.60;21.20;;;;;;4967480;28;35685;-74
2022/05/27 01:36:42;;;;;;;1.45;0.98;;;16.60;20.80;;;;;;4985383;28;34170;-78
2022/05/27 01:39:29;;;;;;;2.13;0.80;;;16.60;20.50;;;;;;4959917;28;34322;-75
2022/05/27 01:42:15;;;;;;;0.80;0.80;;;16.60;20.20;;;;;;4978709;28;34370;-74
2022/05/27 01:44:50;;;;;;;0.80;0.60;;;16.60;20.40;;;;;;4971328;28;35508;-74
2022/05/27 01:47:35;;;;;;;1.00;0.75;;;16.60;20.00;;;;;;4967930;28;34113;-74
2022/05/27 01:50:14;;;;;;;3.38;0.90;;;16.70;21.00;;;;;;4968318;28;34357;-74
2022/05/27 01:52:52;;;;;;;3.92;0.82;;;16.70;20.20;;;;;;4982775;28;34370;-74
2022/05/27 01:55:28;;;;;;;0.77;0.70;;;16.70;20.20;;;;;;4986663;28;35797;-75
2022/05/27 01:58:05;;;;;;;2.33;0.90;;;16.70;20.20;;;;;;4977021;28;36191;-74
2022/05/27 02:00:33;;;;;;;2.80;1.00;;;16.70;20.40;;;;;;4989651;28;34176;-79
2022/05/27 02:03:12;;;;;;;0.70;0.70;;;16.70;20.10;;;;;;5010629;28;34371;-76
2022/05/27 02:06:03;;;;;;;0.70;0.70;;;16.60;20.30;;;;;;4994697;28;35531;-77
2022/05/27 02:08:37;;;;;;;1.67;0.70;;;16.60;20.30;;;;;;4987724;28;34081;-79
2022/05/27 02:11:08;;;;;;;1.95;0.80;;;16.50;20.40;;;;;;5011535;28;34115;-75
2022/05/27 02:13:44;;;;;;;2.38;0.85;;;16.60;20.20;;;;;;4990805;28;34163;-74
2022/05/27 02:16:17;;;;;;;1.50;0.80;;;16.50;20.30;;;;;;4998319;28;35616;-74
2022/05/27 02:18:49;;;;;;;0.68;0.65;;;16.50;20.10;;;;;;5012429;28;34186;-78
2022/05/27 02:21:22;;;;;;;0.60;0.60;;;16.50;20.30;;;;;;4990168;28;34408;-77
2022/05/27 02:23:56;;;;;;;0.60;0.60;;;16.50;20.10;;;;;;4991290;28;34391;-74
2022/05/27 02:26:28;;;;;;;0.57;0.50;;;16.50;20.00;;;;;;4996653;28;35868;-75
2022/05/27 02:29:08;;;;;;;2.95;0.63;;;16.50;20.00;;;;;;5009486;28;34229;-74
2022/05/27 02:31:37;;;;;;;1.48;0.60;;;16.50;20.40;;;;;;5027492;28;34158;-74
2022/05/27 02:36:56;;;;;;;0.95;0.73;;;16.40;20.00;;;;;;5018009;28;34339;-77
2022/05/27 02:39:23;;;;;;;1.80;0.60;;;16.40;20.00;;;;;;5009417;28;34133;-74
2022/05/27 02:42:16;;;;;;;0.60;0.55;;;16.30;19.90;;;;;;5024308;28;35992;-73
2022/05/27 02:45:13;;;;;;;0.70;0.55;;;16.30;20.50;;;;;;4989871;28;33901;-76
2022/05/27 02:48:00;;;;;;;0.60;0.60;;;16.30;20.40;;;;;;4985893;28;36103;-74
2022/05/27 02:50:41;;;;;;;2.13;0.50;;;16.20;20.10;;;;;;4989976;28;34083;-75
2022/05/27 02:53:26;;;;;;;1.67;0.60;;;16.20;20.00;;;;;;4992145;28;34323;-75
2022/05/27 02:56:11;;;;;;;2.47;0.88;;;16.10;20.60;;;;;;5000871;28;34363;-75
2022/05/27 02:58:37;;;;;;;1.13;0.70;;;16.10;20.40;;;;;;5009558;28;36468;-76
2022/05/27 03:01:04;;;;;;;2.85;0.80;;;16.10;19.90;;;;;;4988616;28;34496;-77
2022/05/27 03:03:30;;;;;;;1.00;0.85;;;16.00;19.80;;;;;;4986077;28;34174;-78
2022/05/27 03:06:18;;;;;;;1.50;0.70;;;16.00;19.80;;;;;;5001883;28;34115;-75
2022/05/27 03:09:13;;;;;;;1.02;0.80;;;16.00;20.10;;;;;;4984058;28;35668;-74
2022/05/27 03:11:58;;;;;;;1.10;0.90;;;16.00;20.60;;;;;;5000318;28;34299;-74
2022/05/27 03:14:54;;;;;;;1.55;0.80;;;15.90;20.40;;;;;;4991490;28;34229;-78
2022/05/27 03:17:51;;;;;;;0.90;0.68;;;15.90;21.00;;;;;;5008985;28;34339;-76
2022/05/27 03:20:32;;;;;;;1.05;0.52;;;15.80;21.00;;;;;;4989280;28;35748;-77
2022/05/27 03:23:13;;;;;;;3.13;0.75;;;15.80;20.10;;;;;;4990129;28;34286;-77
2022/05/27 03:25:45;;;;;;;0.93;0.80;;;15.80;21.00;;;;;;5008803;28;34175;-76
2022/05/27 03:28:31;;;;;;;0.70;0.70;;;15.70;20.00;;;;;;4989443;28;34538;-77
2022/05/27 03:31:08;;;;;;;1.42;0.70;;;15.70;21.00;;;;;;5004039;28;36438;-76
2022/05/27 03:34:13;;;;;;;0.65;0.65;;;15.70;20.20;;;;;;4990581;28;34185;-76
2022/05/27 03:36:52;;;;;;;0.70;0.43;;;15.70;21.40;;;;;;4974419;28;34401;-74
2022/05/27 03:39:26;;;;;;;1.35;0.95;;;15.70;20.30;;;;;;5006064;28;34054;-75
2022/05/27 03:41:58;;;;;;;2.33;0.80;;;15.70;20.40;;;;;;4988408;28;36986;-76
2022/05/27 03:44:27;;;;;;;0.80;0.52;;;15.70;20.20;;;;;;5006852;28;34758;-76
2022/05/27 03:46:54;;;;;;;0.73;0.73;;;15.70;20.10;;;;;;5008722;28;34263;-77
2022/05/27 03:49:21;;;;;;;1.73;0.73;;;15.60;20.10;;;;;;4992173;28;34024;-74
2022/05/27 03:52:08;;;;;;;1.42;0.70;;;15.60;20.20;;;;;;4992641;28;35750;-75
2022/05/27 03:54:34;;;;;;;1.55;0.60;;;15.60;20.70;;;;;;4990642;28;34221;-78
2022/05/27 03:57:00;;;;;;;0.85;0.60;;;15.60;20.20;;;;;;4995183;28;34511;-77
2022/05/27 03:59:27;;;;;;;1.02;0.80;;;15.60;20.30;;;;;;5011004;28;34514;-75
2022/05/27 04:01:55;;;;;;;2.63;0.80;;;15.60;20.30;;;;;;5006615;28;35597;-79
2022/05/27 04:04:26;;;;;;;1.08;0.70;;;15.60;20.30;;;;;;5008381;28;34382;-74
2022/05/27 04:06:53;;;;;;;1.08;0.70;;;15.60;20.50;;;;;;4991408;28;34174;-75
2022/05/27 04:09:21;;;;;;;3.00;0.70;;;15.70;20.40;;;;;;5006592;28;34028;-77
2022/05/27 04:11:48;;;;;;;1.55;0.60;;;15.70;20.50;;;;;;5023284;28;35015;-75
2022/05/27 04:14:15;;;;;;;0.85;0.63;;;15.70;20.40;;;;;;5013984;28;34112;-75
2022/05/27 04:16:41;;;;;;;0.60;0.60;;;15.60;20.30;;;;;;4979368;28;34196;-77
2022/05/27 04:19:08;;;;;;;0.90;0.70;;;15.70;20.40;;;;;;5025205;28;34425;-76
2022/05/27 04:21:36;;;;;;;3.45;0.70;;;15.70;20.50;;;;;;5004512;28;35916;-78
2022/05/27 04:24:05;;;;;;;0.75;0.52;;;15.60;20.50;;;;;;5025352;28;34384;-78
2022/05/27 04:26:31;;;;;;;1.00;0.88;;;15.70;20.70;;;;;;5001013;28;34308;-74
2022/05/27 04:28:56;;;;;;;0.88;0.50;;;15.60;20.60;;;;;;5017617;28;34272;-77
2022/05/27 04:31:22;;;;;;;0.60;0.60;;;15.60;20.80;;;;;;5002080;28;35641;-74
2022/05/27 04:33:48;;;;;;;0.98;0.70;;;15.60;20.90;;;;;;5008096;28;34290;-77
2022/05/27 04:36:15;;;;;;;2.28;1.15;;;15.60;20.90;;;;;;4992042;28;34184;-78
2022/05/27 04:38:41;;;;;;;0.70;0.70;;;15.60;21.00;;;;;;5002698;28;34274;-75
2022/05/27 04:41:07;;;;;;;3.20;0.95;;;15.60;21.10;;;;;;4992749;28;36770;-76
2022/05/27 04:43:35;;;;;;;0.80;0.80;;;15.60;21.20;;;;;;5007646;28;34383;-79
2022/05/27 04:46:02;;;;;;;1.35;0.68;;;15.60;21.30;;;;;;4985911;28;34354;-74
2022/05/27 04:48:27;;;;;;;2.33;1.02;;;15.60;21.30;;;;;;4983063;28;34285;-79
2022/05/27 04:50:53;;;;;;;0.88;0.80;;;15.50;21.40;;;;;;4971396;28;35740;-74
2022/05/27 04:53:19;;;;;;;2.38;0.82;;;15.60;21.40;;;;;;5003269;28;34269;-77
2022/05/27 04:55:45;;;;;;;0.75;0.70;;;15.60;21.40;;;;;;4989056;28;34140;-77
2022/05/27 04:58:12;;;;;;;2.92;0.70;;;15.60;21.40;;;;;;5023727;28;34488;-77
2022/05/27 05:00:42;;;;;;;1.05;0.90;;;15.60;21.50;;;;;;5003541;28;35823;-76
2022/05/27 05:03:08;;;;;;;0.80;0.75;;;15.60;21.60;;;;;;4988427;28;34176;-78
2022/05/27 05:05:35;;;;;;;1.33;0.65;;;15.70;21.60;;;;;;5008297;28;34048;-78
2022/05/27 05:08:06;;;;;;;0.85;0.60;;;15.70;21.80;;;;;;4989944;28;34134;-75
2022/05/27 05:10:33;;;;;;;1.95;1.00;;;15.70;22.10;;;;;;4971180;28;36706;-77
2022/05/27 05:12:59;;;;;;;1.98;0.68;;;15.70;21.70;;;;;;5005533;28;34079;-75
2022/05/27 05:15:26;;;;;;;2.42;0.57;;;15.70;21.70;;;;;;4990375;28;34311;-74
2022/05/27 05:17:53;;;;;;;0.60;0.60;;;15.70;21.80;;;;;;5025589;28;34137;-75
2022/05/27 05:20:23;;;;;;;2.15;1.10;;;15.70;21.80;;;;;;5006565;28;35526;-75
2022/05/27 05:22:50;;;;;;;1.00;0.90;;;15.70;22.20;;;;;;4989841;28;34128;-77
2022/05/27 05:25:16;;;;;;;0.90;0.80;;;15.70;21.90;;;;;;4988586;28;34134;-76
2022/05/27 05:27:42;;;;;;;1.20;0.68;;;15.70;21.90;;;;;;5023518;28;34212;-75
2022/05/27 05:30:12;;;;;;;0.60;0.60;;;15.70;22.00;;;;;;5025083;28;34942;-77
2022/05/27 05:32:39;;;;;;;1.52;0.80;;;15.70;23.10;;;;;;5003559;28;34434;-77
2022/05/27 05:35:06;;;;;;;0.95;0.70;;;15.70;22.00;;;;;;5006170;28;34103;-75
2022/05/27 05:37:32;;;;;;;2.30;0.70;;;15.70;22.10;;;;;;5026701;28;34114;-78
2022/05/27 05:39:58;;;;;;;3.30;0.70;;;15.70;22.70;;;;;;5007553;28;34719;-76
2022/05/27 05:42:25;;;;;;;1.75;0.65;;;15.70;22.10;;;;;;5003490;28;34478;-76
2022/05/27 05:44:50;;;;;;;0.70;0.70;;;15.70;22.20;;;;;;5008539;28;34296;-76
2022/05/27 05:47:16;;;;;;;1.52;0.70;;;15.70;22.20;;;;;;5014914;28;34039;-78
2022/05/27 05:49:42;;;;;;;1.08;0.65;;;15.70;22.20;;;;;;4990032;28;35728;-77
2022/05/27 05:52:09;;;;;;;3.97;0.50;;;15.70;22.20;;;;;;5004111;28;34344;-77
2022/05/27 05:54:35;;;;;;;1.95;1.05;;;15.70;22.30;;;;;;5006047;28;34578;-76
2022/05/27 05:57:03;;;;;;;1.60;0.85;;;15.70;22.30;;;;;;5009669;28;34170;-77
2022/05/27 05:59:33;;;;;;;0.80;0.80;;;15.70;22.60;;;;;;5010422;28;35595;-76
2022/05/27 06:02:00;;;;;;;1.40;1.08;;;15.70;22.80;;;;;;4990343;28;34287;-76
2022/05/27 06:04:27;;;;;;;2.10;0.88;;;15.70;22.50;;;;;;5008425;28;34178;-76
2022/05/27 06:06:54;;;;;;;2.25;0.90;;;15.70;22.50;;;;;;4988488;28;34235;-77
2022/05/27 06:09:25;;;;;;;2.53;0.98;;;15.70;22.60;;;;;;5002498;28;35890;-75
2022/05/27 06:11:53;;;;;;;3.13;0.80;;;15.70;22.60;;;;;;4994378;28;34677;-76
2022/05/27 06:14:19;;;;;;;2.38;0.73;;;15.70;22.70;;;;;;5005476;28;34592;-76
2022/05/27 06:16:45;;;;;;;1.20;0.60;;;15.70;23.40;;;;;;4989623;28;34249;-76
2022/05/27 06:19:11;;;;;;;1.30;0.85;;;15.70;22.80;;;;;;5007007;28;35034;-77
2022/05/27 06:21:37;;;;;;;1.63;0.95;;;15.70;22.90;;;;;;4989401;28;34144;-78
2022/05/27 06:24:03;;;;;;;3.65;0.75;;;15.70;23.50;;;;;;5007329;28;34174;-79
2022/05/27 06:26:30;;;;;;;1.48;0.75;;;15.60;23.00;;;;;;4990932;28;34110;-77
2022/05/27 06:34:26;;;;;;;2.05;0.70;;;15.70;23.10;;;;;;5000569;28;34535;-78
2022/05/27 06:36:57;;;;;;;1.42;0.77;;;15.70;23.20;;;;;;5009386;28;35407;-79
2022/05/27 06:39:28;;;;;;;2.47;0.70;;;15.70;23.90;;;;;;5006878;28;36619;-78
2022/05/27 06:41:55;;;;;;;3.08;1.08;;;15.70;23.70;;;;;;5003648;28;34328;-76
2022/05/27 06:44:24;;;;;;;3.80;1.27;;;15.70;23.30;;;;;;4997127;28;34541;-75
2022/05/27 06:46:51;;;;;;;4.25;1.17;;;15.70;23.50;;;;;;4999398;28;34190;-77
2022/05/27 06:49:19;;;;;;;5.75;1.00;;;15.80;23.30;;;;;;5004749;28;34484;-80
2022/05/27 06:51:46;;;;;;;1.52;0.90;;;15.80;23.50;;;;;;5005036;28;34288;-76
2022/05/27 06:54:18;;;;;;;2.10;0.88;;;15.80;23.50;;;;;;4998017;28;34218;-76
2022/05/27 06:56:50;;;;;;;1.40;0.85;;;15.80;24.70;;;;;;5001291;28;34327;-80
2022/05/27 07:01:56;;;;;;;1.05;0.95;;;15.80;24.10;;;;;;5028578;28;34342;-76
2022/05/27 07:05:05;;;;;;;1.20;1.00;;;15.80;23.80;;;;;;4989211;28;33902;-76
2022/05/27 07:10:17;;;;;;;1.67;0.85;;;15.90;23.70;;;;;;5018479;28;62408;-76
2022/05/27 07:12:45;;;;;;;1.15;0.90;;;15.90;26.30;;;;;;4998321;28;34174;-78
2022/05/27 07:15:11;;;;;;;4.15;0.88;;;15.90;23.70;;;;;;5009255;28;34639;-76
2022/05/27 07:17:39;;;;;;;2.65;1.10;;;16.00;23.60;;;;;;5016134;28;34464;-78
2022/05/27 07:20:09;;;;;;;3.92;0.90;;;16.10;23.90;;;;;;5008104;28;35415;-76
2022/05/27 07:22:35;;;;;;;1.55;0.90;;;16.10;23.70;;;;;;4970482;28;34209;-76
2022/05/27 07:25:05;;;;;;;1.58;0.90;;;16.20;23.70;;;;;;5024772;28;34382;-76
2022/05/27 07:27:38;;;;;;;1.08;0.70;;;16.20;23.70;;;;;;5002915;28;34467;-76
2022/05/27 07:30:06;;;;;;;1.10;1.00;;;16.30;24.20;;;;;;5010587;28;36433;-77
2022/05/27 07:32:33;;;;;;;3.50;0.95;;;16.30;23.90;;;;;;5004715;28;34214;-78
2022/05/27 07:34:59;;;;;;;2.28;0.85;;;16.30;24.30;;;;;;4994784;28;34170;-77
2022/05/27 07:37:28;;;;;;;2.10;1.00;;;16.40;23.60;;;;;;4988494;28;34515;-77
2022/05/27 07:39:54;;;;;;;1.48;1.20;;;16.40;23.70;;;;;;5028128;28;35268;-77
2022/05/27 07:42:21;;;;;;;3.47;1.10;;;16.50;23.60;;;;;;4994203;28;34798;-75
2022/05/27 07:44:47;;;;;;;1.35;0.70;;;16.50;23.60;;;;;;5007089;28;34256;-77
2022/05/27 07:47:13;;;;;;;1.40;0.70;;;16.60;23.50;;;;;;4994336;28;34443;-75
2022/05/27 07:49:40;;;;;;;1.00;0.90;;;16.60;23.60;;;;;;4990889;28;34228;-75
2022/05/27 07:52:10;;;;;;;1.35;0.80;;;16.60;23.60;;;;;;4973226;28;35422;-79
2022/05/27 07:54:35;;;;;;;4.15;0.80;;;16.70;24.10;;;;;;4989084;28;34193;-78
2022/05/27 07:57:03;;;;;;;0.50;0.50;;;16.60;23.60;;;;;;4992651;28;34377;-79
2022/05/27 07:59:29;;;;;;;1.77;0.90;;;16.70;23.80;;;;;;5001296;28;35747;-77
2022/05/27 08:01:56;;;;;;;2.67;0.70;;;16.70;23.90;;;;;;4997734;28;34273;-77
2022/05/27 08:04:22;;;;;;;0.98;0.73;;;16.70;23.70;;;;;;4996454;28;33951;-79
2022/05/27 08:06:48;;;;;;;0.77;0.77;;;16.70;23.70;;;;;;5021360;28;33989;-77
2022/05/27 08:09:14;;;;;;;0.70;0.70;;;16.80;23.80;;;;;;5019123;28;35774;-76
2022/05/27 08:11:41;;;;;;;0.95;0.70;;;16.90;23.90;;;;;;5007319;28;34153;-75
2022/05/27 08:14:10;;;;;;;0.70;0.70;;;16.90;23.70;;;;;;5005032;28;34356;-77
2022/05/27 08:16:36;;;;;;;0.70;0.70;;;17.00;23.80;;;;;;4987334;28;34574;-75
2022/05/27 08:19:03;;;;;;;1.13;0.80;;;17.10;23.70;;;;;;4986907;28;35489;-76
2022/05/27 08:21:29;;;;;;;0.82;0.60;;;17.20;23.60;;;;;;4994608;28;34102;-77
2022/05/27 08:24:09;;;;;;;1.75;0.73;;;17.30;23.50;;;;;;4991217;28;34193;-79
2022/05/27 08:26:37;;;;;;;1.10;0.70;;;17.30;25.10;;;;;;4986621;28;34003;-77
2022/05/27 08:29:04;;;;;;;2.05;0.70;;;17.30;23.40;;;;;;4985905;28;34359;-76
2022/05/27 08:31:33;;;;;;;1.00;0.77;;;17.30;23.40;;;;;;4985390;28;34114;-78
2022/05/27 08:39:28;;;;;;;1.70;0.60;;;17.20;23.80;;;;;;4977544;28;34254;-77
2022/05/27 08:42:30;;;;;;;1.25;0.65;;;17.20;23.70;;;;;;4987719;28;34523;-79
2022/05/27 08:45:16;;;;;;;0.63;0.57;;;17.30;24.90;;;;;;4973380;28;34057;-76
2022/05/27 08:48:04;;;;;;;1.00;0.88;;;17.30;24.50;;;;;;4968237;28;34182;-76
2022/05/27 08:50:52;;;;;;;1.55;0.50;;;17.40;24.00;;;;;;4984639;28;35922;-77
2022/05/27 08:53:40;;;;;;;1.45;0.70;;;17.50;25.10;;;;;;5002890;28;34218;-77
2022/05/27 09:01:52;;;;;;;2.22;0.40;;;17.50;24.20;;;;;;4964769;28;34392;-76
2022/05/27 09:04:50;;;;;;;1.45;0.70;;;17.60;23.30;;;;;;4968585;28;34145;-80
2022/05/27 09:07:42;;;;;;;0.38;0.32;;;17.70;24.80;;;;;;4981443;28;33857;-76
2022/05/27 09:10:18;;;;;;;0.88;0.50;;;17.80;24.30;;;;;;4984545;28;34428;-79
2022/05/27 09:13:05;;;;;;;0.20;0.20;;;17.90;23.00;;;;;;4989718;28;34993;-78
2022/05/27 09:15:48;;;;;;;0.47;0.40;;;18.00;23.20;;;;;;4991554;28;34138;-78
2022/05/27 09:18:35;;;;;;;0.30;0.30;;;18.10;23.00;;;;;;4972831;28;34144;-77
2022/05/27 09:21:16;;;;;;;0.25;0.22;;;18.30;23.10;;;;;;4984295;28;34190;-81
2022/05/27 09:24:00;;;;;;;0.30;0.30;;;18.40;22.00;;;;;;4989440;28;34414;-80
2022/05/27 09:26:35;;;;;;;1.05;0.60;;;18.50;22.20;;;;;;4984659;28;34371;-78
2022/05/27 09:29:40;;;;;;;0.38;0.32;;;18.50;22.20;;;;;;4956287;28;33973;-78
2022/05/27 09:32:21;;;;;;;1.48;0.40;;;18.60;22.70;;;;;;4975945;28;34395;-78
2022/05/27 09:34:49;;;;;;;0.93;0.47;;;18.80;22.30;;;;;;4972115;28;36206;-77
2022/05/27 09:37:24;;;;;;;0.88;0.40;;;18.70;21.70;;;;;;4983647;28;34365;-77
2022/05/27 09:39:53;;;;;;;0.95;0.40;;;18.90;21.80;;;;;;4972564;28;34314;-79
2022/05/27 09:42:40;;;;;;;0.45;0.30;;;19.00;21.30;;;;;;4971370;28;34209;-78
2022/05/27 09:45:07;;;;;;;0.20;0.20;;;19.20;21.70;;;;;;4983721;28;35715;-78
2022/05/27 09:47:34;;;;;;;0.30;0.30;;;19.30;20.90;;;;;;4982911;28;34249;-78
2022/05/27 09:50:05;;;;;;;0.30;0.30;;;19.30;21.60;;;;;;4982826;28;34498;-77
2022/05/27 09:52:35;;;;;;;0.22;0.22;;;19.20;20.80;;;;;;5003995;28;34151;-77
2022/05/27 09:55:21;;;;;;;0.32;0.32;;;19.20;21.00;;;;;;4974407;28;36433;-77
2022/05/27 09:58:04;;;;;;;0.30;0.30;;;19.30;21.40;;;;;;4987694;28;34231;-78
2022/05/27 10:00:49;;;;;;;0.30;0.30;;;19.30;21.00;;;;;;4981214;28;34925;-78
2022/05/27 10:03:36;;;;;;;0.35;0.35;;;19.40;21.00;;;;;;5000753;28;33875;-77
2022/05/27 10:06:10;;;;;;;0.30;0.30;;;19.40;20.90;;;;;;4983293;28;34231;-78
2022/05/27 10:08:53;;;;;;;0.10;0.10;;;19.40;20.60;;;;;;4988849;28;34352;-78
2022/05/27 10:11:30;;;;;;;0.30;0.30;;;19.50;20.80;;;;;;4987559;28;34434;-78
2022/05/27 10:14:28;;;;;;;0.35;0.30;;;19.60;20.40;;;;;;4985348;28;34436;-77
2022/05/27 10:17:16;;;;;;;0.30;0.30;;;19.60;20.50;;;;;;4978156;28;36135;-78
2022/05/27 10:19:46;;;;;;;0.30;0.30;;;19.70;20.10;;;;;;4990957;28;34355;-77
2022/05/27 10:22:29;;;;;;;0.30;0.30;;;19.60;20.00;;;;;;4983031;28;34402;-79
2022/05/27 10:25:01;;;;;;;4.15;0.38;;;19.50;19.90;;;;;;4985028;28;34271;-79
2022/05/27 10:27:43;;;;;;;0.25;0.22;;;19.60;20.80;;;;;;4963809;28;35950;-77
2022/05/27 10:30:30;;;;;;;0.70;0.50;;;19.80;21.00;;;;;;4953058;28;33726;-79
2022/05/27 10:33:19;;;;;;;0.40;0.40;;;20.00;21.30;;;;;;4948690;28;34223;-77
2022/05/27 10:35:47;;;;;;;1.17;0.38;;;20.20;19.30;;;;;;4947445;28;35156;-78
2022/05/27 10:38:40;;;;;;;0.25;0.25;;;20.30;19.60;;;;;;4961621;28;35537;-79
2022/05/27 10:41:19;;;;;;;0.20;0.20;;;20.10;19.10;;;;;;4964049;28;34282;-77
2022/05/27 10:44:06;;;;;;;0.30;0.30;;;19.80;19.90;;;;;;4963670;28;34166;-77
2022/05/27 10:46:41;;;;;;;0.90;0.20;;;19.60;21.20;;;;;;4954356;28;34568;-79
2022/05/27 10:49:33;;;;;;;0.20;0.20;;;19.40;21.10;;;;;;4960629;28;35850;-77
2022/05/27 10:52:25;;;;;;;7.68;0.40;;;19.30;23.30;;;;;;4963837;28;34255;-80
2022/05/27 10:55:05;;;;;;;0.30;0.30;;;19.50;25.40;;;;;;4963076;28;34469;-80
2022/05/27 11:04:05;;;;;;;0.30;0.30;;;20.70;22.00;;;;;;4972611;28;33845;-76
2022/05/27 11:06:40;;;;;;;0.63;0.40;;;21.20;19.50;;;;;;4965697;28;34372;-80
2022/05/27 11:09:26;;;;;;;0.40;0.40;;;21.40;18.10;;;;;;4957743;28;34405;-79
2022/05/27 11:12:11;;;;;;;0.30;0.30;;;21.30;18.30;;;;;;5010136;28;34496;-80
2022/05/27 11:17:58;;;;;;;2.47;0.85;;;20.40;19.80;;;;;;5022919;28;34408;-79
2022/05/27 11:20:50;;;;;;;1.70;0.93;;;20.10;20.50;;;;;;4997703;28;34363;-77
2022/05/27 11:23:51;;;;;;;1.02;0.93;;;19.70;20.20;;;;;;5000482;28;35729;-76
2022/05/27 11:26:41;;;;;;;1.42;1.20;;;19.50;22.50;;;;;;4997588;28;34360;-78
2022/05/27 11:29:30;;;;;;;1.48;1.38;;;19.40;21.80;;;;;;4994532;28;34302;-80
2022/05/27 11:32:17;;;;;;;1.85;1.30;;;19.30;21.40;;;;;;5007466;28;34600;-77
2022/05/27 11:35:15;;;;;;;1.65;1.30;;;19.40;21.70;;;;;;4981417;28;35878;-82
2022/05/27 11:38:03;;;;;;;1.65;1.50;;;19.40;21.90;;;;;;4985267;28;34151;-80
2022/05/27 11:40:38;;;;;;;1.50;1.30;;;19.60;22.60;;;;;;5029136;28;34352;-79
2022/05/27 11:43:28;;;;;;;1.60;1.50;;;19.80;21.20;;;;;;5015540;28;34473;-80
2022/05/27 11:46:20;;;;;;;2.13;1.80;;;20.10;22.30;;;;;;5017916;28;34641;-79
2022/05/27 11:48:58;;;;;;;1.45;1.35;;;20.30;20.10;;;;;;5007796;28;34082;-79
2022/05/27 11:51:44;;;;;;;1.65;1.40;;;20.40;19.90;;;;;;5011788;28;34514;-80
2022/05/27 11:54:36;;;;;;;1.42;1.33;;;20.50;19.90;;;;;;5003044;28;34846;-78
2022/05/27 11:57:25;;;;;;;5.00;1.73;;;20.60;20.80;;;;;;4986892;28;35663;-78
2022/05/27 12:00:00;;;;;;;1.45;1.35;;;20.80;19.90;;;;;;5006499;28;34433;-80
2022/05/27 12:02:38;;;;;;;1.48;1.38;;;21.20;19.00;;;;;;5002333;28;34257;-79
2022/05/27 12:05:16;;;;;;;2.05;1.42;;;21.50;19.70;;;;;;5009314;28;34059;-79
2022/05/27 12:08:04;;;;;;;2.10;1.70;;;21.80;18.60;;;;;;4998785;28;35512;-77
2022/05/27 12:10:52;;;;;;;2.72;1.60;;;21.90;17.40;;;;;;5006973;28;34313;-79
2022/05/27 12:13:35;;;;;;;3.92;1.90;;;22.00;16.70;;;;;;4999034;28;35503;-81
2022/05/27 12:16:11;;;;;;;1.60;1.50;;;21.80;17.40;;;;;;5010199;28;34245;-79
2022/05/27 12:18:51;;;;;;;2.95;1.67;;;21.70;17.50;;;;;;5001632;28;34240;-80
2022/05/27 12:21:24;;;;;;;2.20;2.00;;;21.80;18.00;;;;;;4993155;28;34426;-79
2022/05/27 12:24:01;;;;;;;3.63;2.10;;;22.00;18.50;;;;;;5003433;28;34122;-78
2022/05/27 12:26:32;;;;;;;2.63;1.90;;;22.10;17.50;;;;;;5006792;28;34506;-78
2022/05/27 12:29:04;;;;;;;4.13;1.77;;;22.20;17.80;;;;;;4984595;28;36061;-80
2022/05/27 12:31:42;;;;;;;1.90;1.70;;;22.30;16.50;;;;;;5005989;28;34633;-79
2022/05/27 12:34:35;;;;;;;2.47;2.03;;;22.20;15.00;;;;;;5005835;28;34164;-80
2022/05/27 12:37:17;;;;;;;1.92;1.67;;;22.20;12.30;;;;;;4997432;28;34463;-78
2022/05/27 12:39:49;;;;;;;2.53;1.95;;;22.40;15.70;;;;;;4995736;28;35809;-79
2022/05/27 12:42:31;;;;;;;3.20;2.40;;;22.70;15.40;;;;;;5008253;28;34382;-78
2022/05/27 12:45:22;;;;;;;4.60;1.67;;;23.10;13.20;;;;;;5006350;28;34024;-78
2022/05/27 12:47:53;;;;;;;7.93;2.38;;;22.90;11.20;;;;;;5006133;28;34400;-77
2022/05/27 12:50:31;;;;;;;4.10;1.95;;;22.90;13.00;;;;;;5005038;28;35601;-78
2022/05/27 12:53:13;;;;;;;3.35;2.13;;;22.90;10.60;;;;;;5008768;28;34346;-79
2022/05/27 13:01:39;;;;;;;2.60;1.65;;;22.90;13.10;;;;;;4995557;28;34142;-81
2022/05/27 13:04:05;;;;;;;2.47;1.88;;;23.00;13.30;;;;;;5013514;28;34127;-79
2022/05/27 13:06:37;;;;;;;3.95;1.80;;;23.10;13.10;;;;;;4989268;28;34242;-78
2022/05/27 13:09:07;;;;;;;4.07;1.80;;;23.10;10.10;;;;;;4986932;28;34348;-79
2022/05/27 13:11:44;;;;;;;2.47;1.60;;;23.10;11.90;;;;;;4995248;28;34591;-78
2022/05/27 13:14:19;;;;;;;2.60;1.63;;;23.20;9.30;;;;;;4973776;28;34167;-77
2022/05/27 13:17:05;;;;;;;3.90;1.65;;;23.40;10.10;;;;;;4980894;28;34222;-79
2022/05/27 13:19:51;;;;;;;2.05;1.60;;;23.30;6.90;;;;;;4979353;28;34425;-76
2022/05/27 13:22:34;;;;;;;1.92;1.55;;;23.10;7.20;;;;;;4964835;28;36571;-78
2022/05/27 13:25:25;;;;;;;2.25;1.67;;;23.00;8.10;;;;;;4964428;28;34134;-78
2022/05/27 13:27:59;;;;;;;2.05;1.40;;;22.80;6.40;;;;;;4986516;28;34876;-78
2022/05/27 13:30:52;;;;;;;1.65;1.38;;;22.60;9.40;;;;;;4981158;28;34245;-79
2022/05/27 13:33:23;;;;;;;2.83;1.70;;;22.50;8.90;;;;;;4959184;28;35708;-79
2022/05/27 13:35:55;;;;;;;2.55;1.80;;;22.50;11.50;;;;;;4982341;28;34180;-81
2022/05/27 13:38:27;;;;;;;4.47;1.70;;;22.40;11.10;;;;;;4976833;28;34409;-81
2022/05/27 13:40:56;;;;;;;4.38;1.63;;;22.30;10.30;;;;;;4996116;28;34119;-81
2022/05/27 13:43:29;;;;;;;3.28;1.60;;;22.20;11.80;;;;;;4981711;28;35819;-81
2022/05/27 13:46:13;;;;;;;2.25;1.40;;;22.30;11.10;;;;;;5002194;28;34505;-78
2022/05/27 13:48:45;;;;;;;2.05;1.50;;;22.30;9.90;;;;;;4983479;28;34417;-80
2022/05/27 13:51:21;;;;;;;2.60;1.35;;;22.20;7.90;;;;;;4973246;28;34093;-82
2022/05/27 13:53:53;;;;;;;3.30;1.60;;;22.30;9.30;;;;;;4995569;28;35625;-80
2022/05/27 13:56:37;;;;;;;2.17;1.63;;;22.40;10.30;;;;;;4998586;28;34414;-82
2022/05/27 13:59:26;;;;;;;1.90;1.30;;;22.60;9.00;;;;;;5007248;28;34510;-82
2022/05/27 14:01:56;;;;;;;2.78;1.60;;;22.90;8.30;;;;;;4993144;28;34639;-80
2022/05/27 14:04:42;;;;;;;3.03;1.50;;;23.20;10.00;;;;;;5006358;28;37047;-81
2022/05/27 14:07:30;;;;;;;4.18;1.52;;;23.50;7.30;;;;;;5011803;28;34173;-78
2022/05/27 14:09:59;;;;;;;2.60;1.50;;;23.70;3.80;;;;;;5007186;28;34214;-78
2022/05/27 14:12:32;;;;;;;2.58;1.00;;;23.70;7.90;;;;;;5005325;28;35616;-80